createdAt,value
2023-01-17T00:00:24.753Z,99500.69
2023-01-17T00:02:53.478Z,99505.06
2023-01-17T00:05:39.550Z,99500.34
2023-01-17T00:08:30.152Z,99493.22
2023-01-17T00:11:00.269Z,99504.00
2023-01-17T00:13:28.884Z,99499.44
2023-01-17T00:15:57.402Z,99496.53
2023-01-17T00:18:25.982Z,99501.59
2023-01-17T00:21:11.527Z,99498.69
2023-01-17T00:23:56.944Z,99502.44
2023-01-17T00:26:26.955Z,99504.50
2023-01-17T00:28:54.225Z,99506.53
2023-01-17T00:31:21.474Z,99506.56
2023-01-17T00:33:48.836Z,99504.38
2023-01-17T00:36:16.174Z,99505.47
2023-01-17T00:38:43.434Z,99501.09
2023-01-17T00:41:12.319Z,99502.69
2023-01-17T00:44:00.512Z,99500.75
2023-01-17T00:46:46.680Z,99501.84
2023-01-17T00:49:32.790Z,99498.34
2023-01-17T00:52:19.487Z,99497.59
2023-01-17T00:55:05.482Z,99491.13
2023-01-17T00:57:51.530Z,99489.53
2023-01-17T01:00:39.325Z,99490.03
2023-01-17T01:03:27.912Z,99482.16
2023-01-17T01:06:13.777Z,99485.91
2023-01-17T01:08:59.754Z,99477.84
2023-01-17T01:11:45.774Z,99478.44
2023-01-17T01:14:31.819Z,99470.97
2023-01-17T01:17:19.394Z,99473.13
2023-01-17T01:20:05.473Z,99467.31
2023-01-17T01:22:51.492Z,99464.06
2023-01-17T01:25:37.639Z,99462.16
2023-01-17T01:28:24.978Z,99453.31
2023-01-17T01:31:11.077Z,99447.91
2023-01-17T01:33:41.211Z,99441.25
2023-01-17T01:36:10.496Z,99441.34
2023-01-17T01:38:39.324Z,99452.13
2023-01-17T01:41:07.865Z,99428.97
2023-01-17T01:43:45.756Z,99426.16
2023-01-17T01:46:17.905Z,99432.66
2023-01-17T01:48:52.718Z,99428.72
2023-01-17T01:51:27.473Z,99436.88
2023-01-17T01:54:01.730Z,99431.13
2023-01-17T01:56:32.277Z,99427.97
2023-01-17T01:59:04.346Z,99425.09
2023-01-17T02:01:37.236Z,99423.97
2023-01-17T02:04:10.292Z,99422.88
2023-01-17T02:06:41.402Z,99420.00
2023-01-17T02:09:13.048Z,99420.56
2023-01-17T02:11:42.713Z,99420.22
2023-01-17T02:14:16.848Z,99424.19
2023-01-17T02:16:58.321Z,99418.63
2023-01-17T02:19:50.937Z,99417.66
2023-01-17T02:22:45.980Z,99424.06
2023-01-17T02:25:35.578Z,99407.06
2023-01-17T02:28:23.711Z,99407.88
2023-01-17T02:30:59.057Z,99404.38
2023-01-17T02:33:35.513Z,99398.94
2023-01-17T02:36:11.556Z,99414.38
2023-01-17T02:38:48.391Z,99406.66
2023-01-17T02:41:22.446Z,99394.59
2023-01-17T02:43:53.634Z,99400.84
2023-01-17T02:46:23.723Z,99398.22
2023-01-17T02:48:53.637Z,99398.00
2023-01-17T02:51:59.571Z,99406.66
2023-01-17T02:54:44.406Z,99390.59
2023-01-17T02:57:33.904Z,99390.75
2023-01-17T03:00:08.245Z,99398.00
2023-01-17T03:02:46.129Z,99393.38
2023-01-17T03:05:20.387Z,99388.31
2023-01-17T03:07:50.255Z,99373.38
2023-01-17T03:10:20.855Z,99373.00
2023-01-17T03:12:49.573Z,99369.75
2023-01-17T03:15:19.064Z,99368.88
2023-01-17T03:17:52.169Z,99368.03
2023-01-17T03:20:22.659Z,99365.63
2023-01-17T03:22:51.378Z,99372.84
2023-01-17T03:25:19.955Z,99363.34
2023-01-17T03:27:48.851Z,99363.06
2023-01-17T03:30:17.979Z,99367.44
2023-01-17T03:32:46.504Z,99366.84
2023-01-17T03:35:16.893Z,99363.69
2023-01-17T03:37:45.401Z,99350.88
2023-01-17T03:40:14.166Z,99360.31
2023-01-17T03:42:42.967Z,99355.69
2023-01-17T03:45:12.489Z,99350.16
2023-01-17T03:47:40.929Z,99347.75
2023-01-17T03:50:11.151Z,99344.16
2023-01-17T03:52:41.196Z,99340.03
2023-01-17T03:55:10.678Z,99345.31
2023-01-17T03:57:39.223Z,99337.13
2023-01-17T04:00:09.106Z,99334.47
2023-01-17T04:02:39.707Z,99338.44
2023-01-17T04:05:08.891Z,99333.72
2023-01-17T04:07:37.969Z,99333.50
2023-01-17T04:10:09.329Z,99324.78
2023-01-17T04:12:38.866Z,99319.25
2023-01-17T04:15:08.543Z,99317.22
2023-01-17T04:17:39.001Z,99318.41
2023-01-17T04:20:09.034Z,99314.56
2023-01-17T04:22:38.008Z,99310.78
2023-01-17T04:25:09.172Z,99309.81
2023-01-17T04:27:37.936Z,99305.25
2023-01-17T04:30:07.507Z,99310.06
2023-01-17T04:32:39.446Z,99305.31
2023-01-17T04:35:09.716Z,99307.50
2023-01-17T04:37:38.822Z,99303.66
2023-01-17T04:40:12.519Z,99298.88
2023-01-17T04:42:41.663Z,99303.91
2023-01-17T04:45:13.530Z,99304.00
2023-01-17T04:47:42.427Z,99301.50
2023-01-17T04:50:13.151Z,99301.38
2023-01-17T04:52:42.248Z,99283.84
2023-01-17T04:55:14.183Z,99290.41
2023-01-17T04:57:43.257Z,99284.97
2023-01-17T05:00:13.050Z,99276.16
2023-01-17T05:02:42.154Z,99274.69
2023-01-17T05:05:13.688Z,99277.00
2023-01-17T05:07:42.644Z,99268.59
2023-01-17T05:10:13.846Z,99258.78
2023-01-17T05:12:43.526Z,99252.88
2023-01-17T05:15:12.714Z,99255.53
2023-01-17T05:17:43.891Z,99243.97
2023-01-17T05:20:13.617Z,99250.47
2023-01-17T05:22:42.397Z,99234.78
2023-01-17T05:25:11.464Z,99231.56
2023-01-17T05:27:41.804Z,99227.63
2023-01-17T05:30:12.307Z,99229.88
2023-01-17T05:32:41.103Z,99221.91
2023-01-17T05:35:10.864Z,99225.66
2023-01-17T05:37:40.144Z,99223.00
2023-01-17T05:40:11.096Z,99220.09
2023-01-17T05:42:46.800Z,99212.16
2023-01-17T05:45:17.220Z,99210.47
2023-01-17T05:47:46.585Z,99213.59
2023-01-17T05:50:17.086Z,99211.81
2023-01-17T05:52:51.370Z,99206.50
2023-01-17T05:55:20.704Z,99202.03
2023-01-17T05:57:51.214Z,99211.44
2023-01-17T06:00:20.958Z,99202.38
2023-01-17T06:02:49.903Z,99196.09
2023-01-17T06:05:18.844Z,99209.75
2023-01-17T06:07:48.292Z,99202.78
2023-01-17T06:10:17.872Z,99199.88
2023-01-17T06:12:49.565Z,99211.72
2023-01-17T06:15:20.508Z,99207.63
2023-01-17T06:17:49.318Z,99220.59
2023-01-17T06:20:20.153Z,99225.69
2023-01-17T06:22:49.294Z,99209.91
2023-01-17T06:25:17.905Z,99201.56
2023-01-17T06:27:46.735Z,99191.78
2023-01-17T06:30:16.936Z,99197.22
2023-01-17T06:32:53.247Z,99196.25
2023-01-17T06:35:22.112Z,99182.91
2023-01-17T06:37:55.481Z,99186.13
2023-01-17T06:40:24.494Z,99186.88
2023-01-17T06:42:53.684Z,99194.22
2023-01-17T06:45:25.951Z,99188.44
2023-01-17T06:47:56.403Z,99179.63
2023-01-17T06:50:25.770Z,99186.88
2023-01-17T06:52:58.685Z,99187.81
2023-01-17T06:55:28.981Z,99181.44
2023-01-17T06:57:59.685Z,99180.34
2023-01-17T07:00:29.543Z,99179.13
2023-01-17T07:03:00.101Z,99179.88
2023-01-17T07:05:29.465Z,99170.59
2023-01-17T07:07:59.382Z,99176.75
2023-01-17T07:10:28.190Z,99167.34
2023-01-17T07:13:01.272Z,99160.47
2023-01-17T07:15:32.568Z,99148.81
2023-01-17T07:18:05.743Z,99155.31
2023-01-17T07:20:39.095Z,99144.56
2023-01-17T07:23:09.152Z,99137.22
2023-01-17T07:25:38.989Z,99129.16
2023-01-17T07:28:08.988Z,99130.00
2023-01-17T07:30:38.889Z,99131.66
2023-01-17T07:33:11.806Z,99141.31
2023-01-17T07:35:41.207Z,99124.69
2023-01-17T07:38:15.224Z,99123.59
2023-01-17T07:40:45.171Z,99125.19
2023-01-17T07:43:14.935Z,99137.34
2023-01-17T07:45:44.492Z,99130.97
2023-01-17T07:48:15.325Z,99130.59
2023-01-17T07:50:44.279Z,99134.06
2023-01-17T07:53:13.622Z,99129.84
2023-01-17T07:55:42.581Z,99129.13
2023-01-17T07:58:16.167Z,99130.44
2023-01-17T08:00:45.441Z,99120.97
2023-01-17T08:03:17.562Z,99112.25
2023-01-17T08:05:55.087Z,99129.47
2023-01-17T08:08:24.652Z,99115.38
2023-01-17T08:10:53.742Z,99107.56
2023-01-17T08:13:29.911Z,99110.31
2023-01-17T08:16:02.642Z,99106.59
2023-01-17T08:18:39.422Z,99096.00
2023-01-17T08:21:20.627Z,99084.78
2023-01-17T08:23:51.033Z,99088.50
2023-01-17T08:26:22.806Z,99092.13
2023-01-17T08:28:56.199Z,99083.84
2023-01-17T08:31:36.074Z,99074.53
2023-01-17T08:34:06.400Z,99077.22
2023-01-17T08:36:35.351Z,99068.06
2023-01-17T08:39:04.205Z,99073.34
2023-01-17T08:41:33.067Z,99066.47
2023-01-17T08:44:01.886Z,99068.06
2023-01-17T08:46:32.188Z,99064.66
2023-01-17T08:49:05.834Z,99062.63
2023-01-17T08:51:36.229Z,99071.88
2023-01-17T08:54:05.267Z,99072.13
2023-01-17T08:56:34.008Z,99073.84
2023-01-17T08:59:03.443Z,99072.03
2023-01-17T09:01:41.069Z,99068.75
2023-01-17T09:04:10.549Z,99073.84
2023-01-17T09:06:42.365Z,99059.63
2023-01-17T09:09:11.989Z,99064.66
2023-01-17T09:11:41.101Z,99051.06
2023-01-17T09:14:12.867Z,99054.91
2023-01-17T09:16:44.621Z,99048.53
2023-01-17T09:19:13.567Z,99042.53
2023-01-17T09:21:43.684Z,99051.31
2023-01-17T09:24:12.845Z,99047.81
2023-01-17T09:26:41.544Z,99034.94
2023-01-17T09:29:11.070Z,99049.63
2023-01-17T09:31:42.532Z,99032.91
2023-01-17T09:34:11.626Z,99038.31
2023-01-17T09:36:41.487Z,99034.47
2023-01-17T09:39:20.971Z,99031.22
2023-01-17T09:42:00.898Z,99018.69
2023-01-17T09:44:38.365Z,99021.81
2023-01-17T09:47:17.905Z,99020.25
2023-01-17T09:49:48.026Z,99025.06
2023-01-17T09:52:19.811Z,99001.22
2023-01-17T09:54:51.673Z,99005.44
2023-01-17T09:57:44.751Z,99005.69
2023-01-17T10:00:34.286Z,99001.72
2023-01-17T10:03:28.934Z,98998.94
2023-01-17T10:06:15.922Z,98989.78
2023-01-17T10:09:07.765Z,98988.56
2023-01-17T10:11:50.869Z,98980.13
2023-01-17T10:14:41.862Z,98974.13
2023-01-17T10:17:31.588Z,98963.53
2023-01-17T10:20:13.229Z,98969.31
2023-01-17T10:22:58.204Z,98961.72
2023-01-17T10:25:47.003Z,98959.06
2023-01-17T10:28:22.031Z,98959.31
2023-01-17T10:30:54.027Z,98954.25
2023-01-17T10:33:52.350Z,98957.03
2023-01-17T10:36:25.756Z,98940.63
2023-01-17T10:39:00.924Z,98936.06
2023-01-17T10:41:39.223Z,98931.97
2023-01-17T10:44:20.728Z,98936.19
2023-01-17T10:47:02.344Z,98934.03
2023-01-17T10:49:34.317Z,98930.41
2023-01-17T10:52:45.603Z,98935.09
2023-01-17T10:55:33.634Z,98928.34
2023-01-17T10:58:05.522Z,98930.75
2023-01-17T11:00:45.229Z,98913.28
2023-01-17T11:03:16.267Z,98914.97
2023-01-17T11:05:47.481Z,98914.56
2023-01-17T11:08:22.772Z,98914.09
2023-01-17T11:10:59.273Z,98910.97
2023-01-17T11:13:35.406Z,98910.13
2023-01-17T11:16:12.683Z,98908.06
2023-01-17T11:18:44.190Z,98909.00
2023-01-17T11:21:18.294Z,98910.69
2023-01-17T11:23:49.663Z,98905.97
2023-01-17T11:26:27.581Z,98897.22
2023-01-17T11:29:16.999Z,98899.38
2023-01-17T11:31:48.809Z,98900.31
2023-01-17T11:34:20.316Z,98894.75
2023-01-17T11:36:50.250Z,98890.91
2023-01-17T11:39:29.618Z,98887.63
2023-01-17T11:41:58.642Z,98884.59
2023-01-17T11:44:32.709Z,98895.09
2023-01-17T11:47:21.771Z,98891.28
2023-01-17T11:49:51.413Z,98880.31
2023-01-17T11:52:24.983Z,98877.28
2023-01-17T11:54:56.775Z,98876.19
2023-01-17T11:57:28.294Z,98869.41
2023-01-17T12:00:13.286Z,98870.41
2023-01-17T12:03:06.088Z,98849.16
2023-01-17T12:05:47.466Z,98845.53
2023-01-17T12:08:31.460Z,98857.06
2023-01-17T12:11:11.633Z,98855.88
2023-01-17T12:14:01.228Z,98857.28
2023-01-17T12:16:50.676Z,98870.03
2023-01-17T12:19:38.186Z,98853.00
2023-01-17T12:22:23.862Z,98853.44
2023-01-17T12:25:08.940Z,98844.44
2023-01-17T12:27:47.489Z,98829.28
2023-01-17T12:30:46.073Z,98827.16
2023-01-17T12:33:22.250Z,98826.00
2023-01-17T12:35:57.085Z,98827.16
2023-01-17T12:38:33.210Z,98827.59
2023-01-17T12:41:07.660Z,98817.66
2023-01-17T12:43:43.412Z,98827.56
2023-01-17T12:46:21.356Z,98820.25
2023-01-17T12:48:53.690Z,98819.09
2023-01-17T12:51:29.595Z,98828.94
2023-01-17T12:54:05.642Z,98834.72
2023-01-17T12:56:39.372Z,98831.25
2023-01-17T12:59:16.813Z,98821.91
2023-01-17T13:01:48.238Z,98824.91
2023-01-17T13:04:25.840Z,98825.16
2023-01-17T13:07:06.261Z,98814.63
2023-01-17T13:09:41.151Z,98804.13
2023-01-17T13:12:15.007Z,98793.78
2023-01-17T13:14:47.915Z,98807.75
2023-01-17T13:17:30.106Z,98805.63
2023-01-17T13:20:04.195Z,98807.38
2023-01-17T13:22:37.229Z,98795.41
2023-01-17T13:25:17.663Z,98792.75
2023-01-17T13:28:18.659Z,98789.84
2023-01-17T13:31:13.204Z,98804.41
2023-01-17T13:34:13.070Z,98811.81
2023-01-17T13:36:54.165Z,98801.31
2023-01-17T13:39:45.424Z,98807.16
2023-01-17T13:42:26.025Z,98800.03
2023-01-17T13:44:55.234Z,98812.88
2023-01-17T13:47:43.065Z,98803.94
2023-01-17T13:50:49.049Z,98801.47
2023-01-17T13:54:00.573Z,98794.19
2023-01-17T13:56:38.286Z,98799.97
2023-01-17T13:59:33.721Z,98792.50
2023-01-17T14:02:02.774Z,98796.56
2023-01-17T14:05:17.363Z,98800.25
2023-01-17T14:07:49.784Z,98787.06
2023-01-17T14:10:30.589Z,98793.53
2023-01-17T14:13:04.704Z,98795.34
2023-01-17T14:15:36.261Z,98792.75
2023-01-17T14:18:08.485Z,98787.44
2023-01-17T14:21:08.147Z,98788.16
2023-01-17T14:24:05.428Z,98776.28
2023-01-17T14:26:39.227Z,98782.97
2023-01-17T14:29:52.495Z,98784.06
2023-01-17T14:32:24.716Z,98789.81
2023-01-17T14:34:55.103Z,98800.69
2023-01-17T14:37:57.858Z,98794.41
2023-01-17T14:40:30.870Z,98797.69
2023-01-17T14:43:09.566Z,98804.75
2023-01-17T14:45:58.508Z,98802.25
2023-01-17T14:48:28.358Z,98802.56
2023-01-17T14:51:00.413Z,98815.69
2023-01-17T14:53:30.850Z,98804.25
2023-01-17T14:56:02.559Z,98804.25
2023-01-17T14:58:33.882Z,98809.53
2023-01-17T15:01:08.328Z,98808.44
2023-01-17T15:03:54.872Z,98808.72
2023-01-17T15:06:27.251Z,98810.97
2023-01-17T15:08:57.501Z,98816.97
2023-01-17T15:11:28.715Z,98818.22
2023-01-17T15:14:00.773Z,98820.72
2023-01-17T15:16:33.987Z,98817.44
2023-01-17T15:19:12.528Z,98810.44
2023-01-17T15:21:43.958Z,98799.97
2023-01-17T15:24:21.566Z,98805.66
2023-01-17T15:26:51.984Z,98803.19
2023-01-17T15:29:28.410Z,98813.78
2023-01-17T15:32:02.933Z,98809.91
2023-01-17T15:34:34.029Z,98805.59
2023-01-17T15:37:09.061Z,98813.28
2023-01-17T15:39:41.889Z,98818.03
2023-01-17T15:42:23.285Z,98819.81
2023-01-17T15:44:57.043Z,98827.19
2023-01-17T15:47:38.404Z,98825.78
2023-01-17T15:50:30.415Z,98823.44
2023-01-17T15:53:08.250Z,98821.31
2023-01-17T15:55:42.623Z,98815.34
2023-01-17T15:58:25.095Z,98810.16
2023-01-17T16:00:54.361Z,98830.34
2023-01-17T16:03:30.381Z,98810.63
2023-01-17T16:06:00.882Z,98812.19
2023-01-17T16:08:40.831Z,98813.25
2023-01-17T16:11:14.015Z,98812.72
2023-01-17T16:13:47.431Z,98818.31
2023-01-17T16:16:22.925Z,98817.22
2023-01-17T16:19:01.151Z,98819.00
2023-01-17T16:21:33.809Z,98828.38
2023-01-17T16:24:04.636Z,98819.72
2023-01-17T16:26:36.155Z,98828.78
2023-01-17T16:29:12.471Z,98824.78
2023-01-17T16:31:41.548Z,98810.63
2023-01-17T16:34:13.611Z,98820.97
2023-01-17T16:36:44.854Z,98827.28
2023-01-17T16:39:16.892Z,98820.56
2023-01-17T16:41:45.805Z,98826.44
2023-01-17T16:44:14.571Z,98816.50
2023-01-17T16:46:45.248Z,98831.75
2023-01-17T16:49:15.553Z,98830.38
2023-01-17T16:51:50.416Z,98829.53
2023-01-17T16:54:20.651Z,98828.97
2023-01-17T16:56:51.179Z,98819.91
2023-01-17T16:59:26.108Z,98823.91
2023-01-17T17:01:55.127Z,98825.06
2023-01-17T17:04:25.349Z,98825.09
2023-01-17T17:06:54.272Z,98828.75
2023-01-17T17:09:23.453Z,98829.41
2023-01-17T17:11:55.829Z,98835.41
2023-01-17T17:14:24.630Z,98829.53
2023-01-17T17:16:53.430Z,98835.56
2023-01-17T17:19:22.161Z,98839.59
2023-01-17T17:21:52.212Z,98833.44
2023-01-17T17:24:28.328Z,98829.53
2023-01-17T17:26:57.835Z,98827.69
2023-01-17T17:29:27.120Z,98823.66
2023-01-17T17:31:56.405Z,98821.00
2023-01-17T17:34:28.007Z,98819.19
2023-01-17T17:36:58.178Z,98816.41
2023-01-17T17:39:27.296Z,98813.72
2023-01-17T17:41:56.039Z,98820.16
2023-01-17T17:44:24.776Z,98814.03
2023-01-17T17:46:53.683Z,98817.69
2023-01-17T17:49:23.439Z,98819.38
2023-01-17T17:51:53.047Z,98822.03
2023-01-17T17:54:27.619Z,98827.59
2023-01-17T17:56:56.560Z,98823.94
2023-01-17T17:59:25.268Z,98825.38
2023-01-17T18:01:54.307Z,98818.13
2023-01-17T18:04:23.356Z,98821.53
2023-01-17T18:06:51.866Z,98817.84
2023-01-17T18:09:20.650Z,98821.06
2023-01-17T18:11:51.379Z,98809.56
2023-01-17T18:14:24.137Z,98827.09
2023-01-17T18:16:53.490Z,98826.22
2023-01-17T18:19:27.621Z,98822.34
2023-01-17T18:21:56.470Z,98822.19
2023-01-17T18:24:26.489Z,98818.69
2023-01-17T18:26:58.310Z,98823.75
2023-01-17T18:29:31.374Z,98813.97
2023-01-17T18:32:02.995Z,98816.06
2023-01-17T18:34:33.928Z,98810.03
2023-01-17T18:37:02.632Z,98818.19
2023-01-17T18:39:31.777Z,98820.69
2023-01-17T18:42:02.855Z,98814.41
2023-01-17T18:44:32.695Z,98818.47
2023-01-17T18:47:04.842Z,98808.00
2023-01-17T18:49:34.103Z,98808.69
2023-01-17T18:52:02.952Z,98810.06
2023-01-17T18:54:32.131Z,98815.34
2023-01-17T18:57:02.662Z,98810.22
2023-01-17T18:59:31.372Z,98821.69
2023-01-17T19:01:59.977Z,98817.03
2023-01-17T19:04:30.447Z,98811.47
2023-01-17T19:06:59.409Z,98816.50
2023-01-17T19:09:32.575Z,98824.72
2023-01-17T19:12:04.174Z,98820.97
2023-01-17T19:14:32.876Z,98818.63
2023-01-17T19:17:01.933Z,98833.13
2023-01-17T19:19:30.728Z,98834.41
2023-01-17T19:22:00.397Z,98829.50
2023-01-17T19:24:32.488Z,98838.06
2023-01-17T19:27:03.047Z,98836.94
2023-01-17T19:29:31.889Z,98833.59
2023-01-17T19:32:00.670Z,98838.63
2023-01-17T19:34:29.750Z,98839.91
2023-01-17T19:36:58.562Z,98839.91
2023-01-17T19:39:30.802Z,98848.16
2023-01-17T19:41:59.447Z,98848.97
2023-01-17T19:44:30.126Z,98843.81
2023-01-17T19:46:59.119Z,98843.50
2023-01-17T19:49:29.927Z,98858.63
2023-01-17T19:52:00.797Z,98865.59
2023-01-17T19:54:31.943Z,98862.81
2023-01-17T19:57:00.897Z,98866.31
2023-01-17T19:59:31.114Z,98873.19
2023-01-17T20:02:01.246Z,98870.00
2023-01-17T20:04:30.234Z,98880.66
2023-01-17T20:06:58.880Z,98876.69
2023-01-17T20:09:27.972Z,98877.25
2023-01-17T20:11:56.896Z,98876.97
2023-01-17T20:14:25.574Z,98885.94
2023-01-17T20:16:57.598Z,98889.41
2023-01-17T20:19:26.415Z,98873.59
2023-01-17T20:21:55.893Z,98884.84
2023-01-17T20:24:27.919Z,98874.31
2023-01-17T20:26:58.233Z,98880.34
2023-01-17T20:29:27.207Z,98879.78
2023-01-17T20:31:57.394Z,98890.25
2023-01-17T20:34:26.213Z,98887.09
2023-01-17T20:36:59.475Z,98888.59
2023-01-17T20:39:28.350Z,98897.97
2023-01-17T20:41:57.797Z,98891.97
2023-01-17T20:44:26.385Z,98898.25
2023-01-17T20:46:57.107Z,98905.84
2023-01-17T20:49:26.018Z,98897.19
2023-01-17T20:51:55.610Z,98900.25
2023-01-17T20:54:24.736Z,98904.13
2023-01-17T20:56:53.946Z,98903.84
2023-01-17T20:59:23.689Z,98904.44
2023-01-17T21:01:53.123Z,98911.72
2023-01-17T21:04:27.723Z,98904.44
2023-01-17T21:06:56.571Z,98904.16
2023-01-17T21:09:25.640Z,98897.31
2023-01-17T21:11:54.606Z,98900.13
2023-01-17T21:14:23.444Z,98902.78
2023-01-17T21:16:53.052Z,98905.88
2023-01-17T21:19:26.304Z,98902.09
2023-01-17T21:21:56.422Z,98906.56
2023-01-17T21:24:25.136Z,98901.94
2023-01-17T21:26:57.218Z,98899.53
2023-01-17T21:29:31.997Z,98900.53
2023-01-17T21:32:00.902Z,98904.47
2023-01-17T21:34:33.039Z,98897.47
2023-01-17T21:37:01.522Z,98901.69
2023-01-17T21:39:30.609Z,98890.75
2023-01-17T21:41:59.408Z,98896.03
2023-01-17T21:44:28.011Z,98894.22
2023-01-17T21:46:56.994Z,98890.19
2023-01-17T21:49:25.679Z,98894.53
2023-01-17T21:52:13.500Z,98893.81
2023-01-17T21:54:59.646Z,98892.81
2023-01-17T21:57:54.518Z,98896.06
2023-01-17T22:00:23.572Z,98886.00
2023-01-17T22:02:52.275Z,98885.00
2023-01-17T22:05:21.145Z,98893.81
2023-01-17T22:08:08.209Z,98893.97
2023-01-17T22:10:44.726Z,98889.91
2023-01-17T22:13:14.789Z,98889.91
2023-01-17T22:15:43.862Z,98899.44
2023-01-17T22:18:12.885Z,98892.28
2023-01-17T22:20:42.307Z,98900.13
2023-01-17T22:23:12.937Z,98893.53
2023-01-17T22:25:41.603Z,98897.50
2023-01-17T22:28:10.248Z,98897.50
2023-01-17T22:30:38.988Z,98896.06
2023-01-17T22:33:07.801Z,98892.28
2023-01-17T22:35:36.629Z,98899.03
2023-01-17T22:38:05.217Z,98902.38
2023-01-17T22:40:38.495Z,98895.25
2023-01-17T22:43:07.401Z,98898.00
2023-01-17T22:45:36.019Z,98895.63
2023-01-17T22:48:04.771Z,98899.44
2023-01-17T22:50:35.430Z,98903.06
2023-01-17T22:53:04.294Z,98892.44
2023-01-17T22:55:34.871Z,98895.34
2023-01-17T22:58:03.567Z,98904.34
2023-01-17T23:00:32.363Z,98908.13
2023-01-17T23:03:01.217Z,98894.66
2023-01-17T23:05:30.003Z,98900.69
2023-01-17T23:08:02.122Z,98895.66
2023-01-17T23:10:48.428Z,98891.75
2023-01-17T23:13:18.460Z,98900.84
2023-01-17T23:16:04.566Z,98893.41
2023-01-17T23:18:50.811Z,98900.53
2023-01-17T23:21:19.360Z,98901.25
2023-01-17T23:23:47.799Z,98899.13
2023-01-17T23:26:17.094Z,98903.19
2023-01-17T23:28:45.907Z,98906.25
2023-01-17T23:31:14.515Z,98903.06
2023-01-17T23:33:43.002Z,98902.91
2023-01-17T23:36:11.926Z,98905.56
2023-01-17T23:38:44.278Z,98913.13
2023-01-17T23:41:30.016Z,98914.81
2023-01-17T23:44:00.367Z,98916.59
2023-01-17T23:46:30.405Z,98917.13
2023-01-17T23:48:58.914Z,98932.09
2023-01-17T23:51:27.415Z,98921.91
2023-01-17T23:54:05.545Z,98930.16
2023-01-17T23:56:34.161Z,98940.53
2023-01-17T23:59:04.583Z,98935.59
